Time;durP1;ratioP1;P1;durP2;ratioP2;P2;SDS_P1;SDS_P2;PMS_P1;PMS_P2;Temp;Humidity;BMP_temperature;BMP_pressure;BME280_temperature;BME280_humidity;BME280_pressure;Samples;Min_cycle;Max_cycle;Signal;HPM_P1;HPM_P2
2023/04/08 00:00:30;;;;;;;10.43;7.30;;;11.80;53.50;;;;;;5072867;28;20467;-85
2023/04/08 00:02:58;;;;;;;11.73;8.00;;;11.70;53.60;;;;;;5063632;28;20439;-87
2023/04/08 00:05:25;;;;;;;14.10;8.33;;;11.70;53.40;;;;;;5087880;28;21053;-87
2023/04/08 00:07:53;;;;;;;14.20;8.77;;;11.80;53.50;;;;;;5090692;28;20444;-84
2023/04/08 00:10:21;;;;;;;15.53;8.80;;;11.70;54.00;;;;;;5056776;28;20455;-86
2023/04/08 00:12:48;;;;;;;13.27;8.80;;;11.70;54.20;;;;;;5087198;28;20547;-86
2023/04/08 00:15:15;;;;;;;13.10;8.10;;;11.70;54.20;;;;;;5092478;27;20438;-85
2023/04/08 00:17:42;;;;;;;11.03;7.67;;;11.70;54.20;;;;;;5090662;28;20897;-86
2023/04/08 00:20:11;;;;;;;11.47;8.60;;;11.70;54.10;;;;;;5086627;28;20466;-86
2023/04/08 00:22:38;;;;;;;13.33;8.97;;;11.70;54.20;;;;;;5072609;28;20452;-86
2023/04/08 00:25:08;;;;;;;11.70;9.00;;;11.60;54.30;;;;;;5060822;28;20960;-85
2023/04/08 00:27:35;;;;;;;16.80;9.03;;;11.50;55.60;;;;;;5058842;28;20431;-87
2023/04/08 00:30:02;;;;;;;11.63;8.37;;;11.60;55.30;;;;;;5046009;28;20477;-85
2023/04/08 00:32:29;;;;;;;14.90;8.13;;;11.60;55.00;;;;;;5088970;28;20940;-84
2023/04/08 00:34:58;;;;;;;13.87;9.10;;;11.70;55.20;;;;;;5079804;28;20869;-85
2023/04/08 00:37:26;;;;;;;15.37;9.90;;;11.60;55.00;;;;;;5063729;28;20462;-86
2023/04/08 00:39:53;;;;;;;17.13;10.00;;;11.70;55.30;;;;;;5088337;28;20459;-85
2023/04/08 00:42:20;;;;;;;15.80;9.20;;;11.70;55.70;;;;;;5077204;28;20530;-86
2023/04/08 00:44:48;;;;;;;11.90;8.57;;;11.70;55.50;;;;;;5080634;28;20455;-87
2023/04/08 00:47:16;;;;;;;11.70;9.00;;;11.70;55.50;;;;;;5075090;28;20449;-86
2023/04/08 00:49:43;;;;;;;13.70;7.97;;;11.70;56.10;;;;;;5070891;28;20927;-85
2023/04/08 00:52:10;;;;;;;19.77;7.93;;;11.60;56.40;;;;;;5093173;28;20534;-85
2023/04/08 00:54:39;;;;;;;10.63;7.90;;;11.50;56.80;;;;;;5058579;28;20739;-87
2023/04/08 00:57:07;;;;;;;15.20;8.03;;;11.30;57.30;;;;;;5074208;28;20466;-85
2023/04/08 00:59:35;;;;;;;11.23;7.87;;;11.40;57.20;;;;;;5094627;28;20467;-85
2023/04/08 01:02:09;;;;;;;13.80;8.80;;;11.50;56.80;;;;;;5092072;27;20447;-86
2023/04/08 01:04:44;;;;;;;10.20;7.77;;;11.50;57.00;;;;;;5093018;27;20447;-87
2023/04/08 01:07:17;;;;;;;18.90;9.90;;;11.50;57.30;;;;;;5060978;28;20446;-86
2023/04/08 01:09:51;;;;;;;28.47;14.30;;;11.50;57.30;;;;;;5092915;27;20995;-86
2023/04/08 01:12:22;;;;;;;25.00;14.13;;;11.40;57.60;;;;;;5068028;28;20455;-86
2023/04/08 01:14:56;;;;;;;25.07;13.50;;;11.40;58.10;;;;;;5074237;28;20960;-86
2023/04/08 01:17:23;;;;;;;22.50;11.53;;;11.40;58.20;;;;;;5073724;27;20822;-85
2023/04/08 01:19:52;;;;;;;18.93;10.87;;;11.50;58.10;;;;;;5082813;28;20458;-85
2023/04/08 01:22:28;;;;;;;23.70;11.17;;;11.50;57.90;;;;;;5091173;27;20467;-87
2023/04/08 01:25:02;;;;;;;18.60;10.23;;;11.50;57.90;;;;;;5074135;28;20470;-86
2023/04/08 01:27:32;;;;;;;18.03;9.70;;;11.60;58.00;;;;;;5108867;27;20824;-85
2023/04/08 01:30:02;;;;;;;16.40;10.07;;;11.50;58.00;;;;;;5059523;28;20464;-86
2023/04/08 01:32:32;;;;;;;16.70;9.17;;;11.50;58.10;;;;;;5070910;28;20462;-85
2023/04/08 01:35:01;;;;;;;16.00;8.73;;;11.50;58.10;;;;;;5104855;27;20443;-86
2023/04/08 01:37:30;;;;;;;22.40;10.20;;;11.60;57.80;;;;;;5075096;28;20474;-86
2023/04/08 01:39:58;;;;;;;15.40;9.43;;;11.60;57.40;;;;;;5089831;28;21052;-86
2023/04/08 01:42:28;;;;;;;14.37;9.40;;;11.60;57.50;;;;;;5061121;27;20450;-87
2023/04/08 01:44:59;;;;;;;19.13;9.00;;;11.40;57.80;;;;;;5078296;28;20780;-86
2023/04/08 01:47:27;;;;;;;20.20;10.03;;;11.40;58.20;;;;;;5063279;28;20454;-87
2023/04/08 01:49:56;;;;;;;14.17;8.63;;;11.40;57.90;;;;;;5064096;28;20467;-87
2023/04/08 01:52:25;;;;;;;18.23;10.47;;;11.50;57.70;;;;;;5091118;28;20454;-85
2023/04/08 01:54:53;;;;;;;16.47;11.00;;;11.60;57.40;;;;;;5043015;28;21047;-86
2023/04/08 01:57:24;;;;;;;15.80;9.20;;;11.60;57.20;;;;;;5099138;27;20984;-87
2023/04/08 01:59:56;;;;;;;29.73;10.77;;;11.50;57.40;;;;;;5089080;28;20499;-86
2023/04/08 02:02:27;;;;;;;18.70;11.20;;;11.50;57.40;;;;;;5076375;28;20970;-86
2023/04/08 02:04:54;;;;;;;21.40;10.80;;;11.40;57.90;;;;;;5094273;28;20736;-87
2023/04/08 02:07:21;;;;;;;21.83;10.00;;;11.40;57.80;;;;;;5074653;28;20459;-86
2023/04/08 02:09:48;;;;;;;15.43;9.20;;;11.00;58.40;;;;;;5075091;28;20471;-86
2023/04/08 02:12:15;;;;;;;16.90;8.93;;;11.00;59.30;;;;;;5091593;27;20448;-85
2023/04/08 02:14:42;;;;;;;15.50;8.83;;;11.00;59.00;;;;;;5092728;28;20455;-84
2023/04/08 02:17:13;;;;;;;39.97;10.63;;;10.70;59.00;;;;;;5070648;28;20858;-85
2023/04/08 02:19:48;;;;;;;40.37;9.70;;;10.60;59.40;;;;;;5085704;28;20929;-87
2023/04/08 02:22:23;;;;;;;52.27;12.17;;;10.60;59.50;;;;;;5076576;27;20474;-86
2023/04/08 02:24:50;;;;;;;26.87;11.20;;;10.70;59.40;;;;;;5060789;28;20438;-86
2023/04/08 02:27:18;;;;;;;19.23;8.40;;;10.50;59.40;;;;;;5093641;27;20482;-85
2023/04/08 02:29:47;;;;;;;58.70;12.47;;;10.50;60.00;;;;;;5077861;28;20511;-87
2023/04/08 02:32:15;;;;;;;20.67;11.00;;;10.30;60.10;;;;;;5090681;27;20447;-87
2023/04/08 02:34:44;;;;;;;54.00;14.17;;;10.10;61.00;;;;;;5094004;27;20478;-86
2023/04/08 02:37:11;;;;;;;28.20;12.43;;;10.00;60.90;;;;;;5055496;27;20826;-85
2023/04/08 02:39:38;;;;;;;58.93;14.53;;;9.90;62.80;;;;;;5066728;28;20464;-84
2023/04/08 02:42:05;;;;;;;105.77;17.23;;;10.20;61.50;;;;;;5082080;28;20628;-86
2023/04/08 02:44:32;;;;;;;30.37;12.13;;;10.30;60.50;;;;;;5083013;27;20544;-85
2023/04/08 02:47:03;;;;;;;28.73;10.80;;;10.40;60.60;;;;;;5062017;28;20452;-86
2023/04/08 02:49:30;;;;;;;70.00;12.70;;;10.30;60.60;;;;;;5056401;28;20470;-87
2023/04/08 02:51:59;;;;;;;50.20;12.37;;;10.20;60.50;;;;;;5062977;28;20448;-85
2023/04/08 02:54:26;;;;;;;41.70;11.43;;;9.90;62.00;;;;;;5072881;28;21093;-86
2023/04/08 02:56:53;;;;;;;21.60;11.20;;;9.80;63.20;;;;;;5082154;28;20474;-86
2023/04/08 02:59:20;;;;;;;110.40;19.10;;;10.10;61.90;;;;;;5065922;27;20472;-86
2023/04/08 03:01:47;;;;;;;17.90;10.90;;;10.40;61.20;;;;;;5056853;28;20440;-87
2023/04/08 03:04:15;;;;;;;105.70;15.93;;;10.40;60.10;;;;;;5090195;27;20584;-87
2023/04/08 03:06:42;;;;;;;33.63;14.53;;;10.60;59.40;;;;;;5089784;27;20590;-87
2023/04/08 03:09:10;;;;;;;58.80;18.67;;;10.60;59.20;;;;;;5090119;27;20462;-86
2023/04/08 03:11:37;;;;;;;58.20;18.97;;;10.50;59.40;;;;;;5092455;28;20443;-86
2023/04/08 03:14:04;;;;;;;45.30;19.37;;;10.40;59.50;;;;;;5074986;28;20458;-84
2023/04/08 03:16:31;;;;;;;30.77;17.27;;;10.20;60.00;;;;;;5105357;27;20465;-86
2023/04/08 03:18:58;;;;;;;55.67;17.70;;;10.10;60.70;;;;;;5088797;28;20446;-86
2023/04/08 03:21:25;;;;;;;51.83;17.30;;;10.30;60.30;;;;;;5092436;28;20754;-89
2023/04/08 03:23:52;;;;;;;41.80;16.40;;;10.40;59.70;;;;;;5058104;28;20550;-86
2023/04/08 03:26:21;;;;;;;24.17;14.33;;;10.40;59.40;;;;;;5072084;27;20451;-84
2023/04/08 03:28:48;;;;;;;44.17;13.87;;;10.20;59.20;;;;;;5068699;28;20450;-86
2023/04/08 03:31:15;;;;;;;24.93;11.60;;;10.00;59.70;;;;;;5089532;28;20499;-86
2023/04/08 03:33:42;;;;;;;22.93;11.07;;;9.70;61.60;;;;;;5087482;28;20972;-87
2023/04/08 03:36:09;;;;;;;16.67;10.00;;;9.60;61.80;;;;;;5074048;28;20452;-86
2023/04/08 03:38:36;;;;;;;30.33;11.10;;;9.50;62.20;;;;;;5076793;27;20435;-87
2023/04/08 03:41:03;;;;;;;25.17;12.10;;;9.30;62.10;;;;;;5070597;28;20479;-86
2023/04/08 03:43:31;;;;;;;24.17;10.00;;;9.30;62.50;;;;;;5091347;28;21066;-85
2023/04/08 03:45:59;;;;;;;22.33;10.00;;;9.40;62.50;;;;;;5099628;27;20479;-86
2023/04/08 03:48:26;;;;;;;16.63;9.80;;;9.50;61.60;;;;;;5062682;27;20451;-87
2023/04/08 03:50:53;;;;;;;35.10;11.90;;;9.80;61.00;;;;;;5069492;28;20471;-84
2023/04/08 03:53:20;;;;;;;28.77;12.23;;;9.50;61.00;;;;;;5080188;28;20448;-86
2023/04/08 03:55:49;;;;;;;25.90;12.80;;;9.50;61.70;;;;;;5091754;27;20542;-84
2023/04/08 03:58:16;;;;;;;22.50;11.10;;;9.80;60.80;;;;;;5103542;27;20464;-85
2023/04/08 04:00:45;;;;;;;28.77;11.40;;;9.70;60.30;;;;;;5090419;27;20512;-85
2023/04/08 04:03:12;;;;;;;22.47;11.70;;;9.70;60.00;;;;;;5064150;28;20444;-85
2023/04/08 04:05:39;;;;;;;58.73;17.67;;;9.60;60.30;;;;;;5090044;28;20803;-87
2023/04/08 04:08:08;;;;;;;33.50;14.17;;;9.70;60.20;;;;;;5089374;28;20787;-86
2023/04/08 04:10:35;;;;;;;49.07;15.70;;;9.80;60.50;;;;;;5081477;28;20477;-86
2023/04/08 04:13:02;;;;;;;69.50;17.83;;;9.70;60.40;;;;;;5088869;28;21054;-87
2023/04/08 04:15:29;;;;;;;95.37;21.70;;;9.60;60.50;;;;;;5090593;27;20471;-87
2023/04/08 04:17:58;;;;;;;91.27;23.87;;;9.30;60.90;;;;;;5078143;28;20471;-87
2023/04/08 04:20:25;;;;;;;64.67;20.53;;;9.00;61.90;;;;;;5040715;28;20566;-84
2023/04/08 04:22:52;;;;;;;55.13;19.10;;;8.80;62.80;;;;;;5091500;28;20452;-85
2023/04/08 04:25:19;;;;;;;44.87;20.23;;;9.10;62.20;;;;;;5103577;27;20454;-85
2023/04/08 04:27:46;;;;;;;46.63;18.70;;;9.50;61.50;;;;;;5073555;28;20451;-88
2023/04/08 04:30:14;;;;;;;41.60;17.10;;;9.70;61.20;;;;;;5057384;28;20583;-86
2023/04/08 04:32:41;;;;;;;30.30;14.30;;;9.60;60.50;;;;;;5092680;28;20443;-86
2023/04/08 04:35:10;;;;;;;62.10;16.93;;;9.40;60.80;;;;;;5054619;28;20706;-87
2023/04/08 04:37:37;;;;;;;42.77;16.13;;;9.30;61.10;;;;;;5054894;28;20470;-85
2023/04/08 04:40:06;;;;;;;26.83;13.87;;;9.30;61.40;;;;;;5045959;28;20563;-87
2023/04/08 04:42:33;;;;;;;36.13;13.07;;;9.50;61.40;;;;;;5071113;28;20486;-84
2023/04/08 04:45:00;;;;;;;36.63;14.13;;;9.60;60.40;;;;;;5054658;28;21013;-85
2023/04/08 04:47:27;;;;;;;58.43;15.57;;;9.60;60.70;;;;;;5071048;28;20870;-87
2023/04/08 04:49:54;;;;;;;105.83;18.87;;;9.40;60.50;;;;;;5065621;28;21021;-87
2023/04/08 04:52:23;;;;;;;53.80;18.37;;;8.80;62.00;;;;;;5063099;28;20516;-86
2023/04/08 04:54:50;;;;;;;28.53;15.20;;;8.60;64.00;;;;;;5059656;28;20454;-86
2023/04/08 04:57:17;;;;;;;25.93;11.77;;;8.70;64.10;;;;;;5087121;28;20460;-86
2023/04/08 04:59:44;;;;;;;32.67;12.90;;;8.70;62.80;;;;;;5036065;28;20460;-86
2023/04/08 05:02:11;;;;;;;36.33;12.50;;;8.60;63.10;;;;;;5061863;28;20462;-86
2023/04/08 05:04:38;;;;;;;26.70;12.20;;;8.90;62.60;;;;;;5056834;28;20442;-85
2023/04/08 05:07:05;;;;;;;29.13;15.60;;;9.10;62.10;;;;;;5056272;28;20485;-87
2023/04/08 05:09:34;;;;;;;52.53;14.67;;;9.20;61.50;;;;;;5088732;28;20542;-86
2023/04/08 05:12:01;;;;;;;37.97;13.67;;;9.30;60.40;;;;;;5057392;28;20499;-85
2023/04/08 05:14:29;;;;;;;40.13;13.80;;;9.40;60.70;;;;;;5088355;28;20443;-85
2023/04/08 05:16:57;;;;;;;34.90;16.37;;;8.90;62.20;;;;;;5063721;28;20456;-86
2023/04/08 05:19:24;;;;;;;42.20;21.83;;;9.10;62.20;;;;;;5045810;28;20466;-87
2023/04/08 05:21:51;;;;;;;47.53;21.60;;;9.40;61.20;;;;;;5054575;28;20535;-86
2023/04/08 05:24:18;;;;;;;39.90;20.47;;;9.60;60.40;;;;;;5086493;28;20486;-86
2023/04/08 05:26:51;;;;;;;42.93;21.20;;;9.80;60.10;;;;;;5105439;27;20880;-85
2023/04/08 05:29:18;;;;;;;33.00;18.40;;;9.90;59.70;;;;;;5064176;28;20450;-86
2023/04/08 05:31:45;;;;;;;34.87;16.93;;;10.00;58.50;;;;;;5089978;28;20514;-86
2023/04/08 05:34:12;;;;;;;28.23;15.23;;;10.10;58.20;;;;;;5070577;28;20455;-86
2023/04/08 05:36:39;;;;;;;31.93;17.10;;;10.10;58.00;;;;;;5046918;28;20450;-84
2023/04/08 05:39:06;;;;;;;30.27;15.73;;;10.00;57.80;;;;;;5074135;28;20689;-86
2023/04/08 05:41:33;;;;;;;29.17;15.97;;;9.80;58.90;;;;;;5107441;27;20538;-86
2023/04/08 05:44:02;;;;;;;30.73;16.53;;;9.70;59.40;;;;;;5073504;28;20459;-86
2023/04/08 05:46:29;;;;;;;29.83;14.67;;;9.60;59.50;;;;;;5074442;28;20438;-87
2023/04/08 05:48:56;;;;;;;25.10;16.00;;;9.80;59.40;;;;;;5093461;28;20462;-84
2023/04/08 05:51:23;;;;;;;29.60;16.20;;;9.60;59.20;;;;;;5091687;28;20473;-86
2023/04/08 05:53:50;;;;;;;36.37;17.17;;;9.50;59.80;;;;;;5056291;28;20574;-86
2023/04/08 05:56:17;;;;;;;32.73;17.07;;;9.30;60.40;;;;;;5091724;28;20454;-85
2023/04/08 05:58:44;;;;;;;26.60;14.80;;;9.20;61.20;;;;;;5093343;28;20554;-86
2023/04/08 06:01:13;;;;;;;28.43;13.90;;;9.50;60.80;;;;;;5093029;27;20478;-87
2023/04/08 06:03:40;;;;;;;27.47;14.80;;;9.80;60.00;;;;;;5108707;27;20489;-85
2023/04/08 06:06:10;;;;;;;27.27;14.03;;;10.00;58.40;;;;;;5091364;28;20447;-85
2023/04/08 06:08:37;;;;;;;22.63;12.40;;;10.20;58.20;;;;;;5092367;27;20501;-86
2023/04/08 06:11:04;;;;;;;19.30;12.00;;;10.00;58.00;;;;;;5066562;28;20551;-86
2023/04/08 06:13:32;;;;;;;17.53;10.60;;;9.70;59.80;;;;;;5091196;28;20459;-86
2023/04/08 06:15:59;;;;;;;22.33;11.63;;;9.70;60.90;;;;;;5105370;27;20534;-86
2023/04/08 06:18:27;;;;;;;43.80;13.90;;;9.70;60.40;;;;;;5091430;27;20578;-85
2023/04/08 06:20:54;;;;;;;25.30;13.10;;;9.70;60.10;;;;;;5089927;28;20464;-85
2023/04/08 06:23:21;;;;;;;28.43;13.00;;;9.70;60.10;;;;;;5088995;28;20454;-85
2023/04/08 06:25:48;;;;;;;25.83;12.20;;;9.60;60.40;;;;;;5089370;28;20431;-85
2023/04/08 06:28:15;;;;;;;24.10;14.23;;;9.50;61.30;;;;;;5107266;27;20495;-85
2023/04/08 06:30:43;;;;;;;26.90;13.40;;;9.50;61.20;;;;;;5106818;27;20829;-85
2023/04/08 06:33:10;;;;;;;23.47;13.33;;;9.60;62.00;;;;;;5091548;28;20471;-87
2023/04/08 06:35:38;;;;;;;25.47;13.67;;;10.00;59.60;;;;;;5056456;28;20549;-85
2023/04/08 06:38:05;;;;;;;25.47;12.10;;;10.20;59.20;;;;;;5090991;27;20470;-86
2023/04/08 06:40:32;;;;;;;28.83;15.00;;;10.20;58.50;;;;;;5072198;28;20491;-87
2023/04/08 06:42:59;;;;;;;22.77;12.60;;;10.20;58.70;;;;;;5065458;28;20439;-86
2023/04/08 06:45:35;;;;;;;30.80;15.30;;;10.20;58.20;;;;;;5071826;27;20459;-85
2023/04/08 06:48:02;;;;;;;26.40;13.77;;;10.20;58.80;;;;;;5071785;28;20440;-86
2023/04/08 06:50:29;;;;;;;31.30;16.30;;;10.20;58.80;;;;;;5090977;27;20717;-87
2023/04/08 06:52:57;;;;;;;18.57;11.47;;;10.30;58.80;;;;;;5090955;27;20447;-86
2023/04/08 06:55:25;;;;;;;22.63;13.27;;;10.50;59.10;;;;;;5090739;28;20532;-85
2023/04/08 06:57:52;;;;;;;24.03;15.13;;;10.50;58.60;;;;;;5073821;28;20500;-85
2023/04/08 07:00:19;;;;;;;28.13;14.60;;;10.30;58.80;;;;;;5090308;27;20497;-85
2023/04/08 07:02:46;;;;;;;24.90;14.70;;;10.00;59.50;;;;;;5106740;27;20443;-86
2023/04/08 07:05:13;;;;;;;20.67;12.80;;;9.90;60.90;;;;;;5091450;28;20899;-86
2023/04/08 07:07:40;;;;;;;36.20;21.40;;;9.80;62.30;;;;;;5077897;27;20446;-86
2023/04/08 07:10:09;;;;;;;27.43;18.50;;;9.80;61.40;;;;;;5091335;28;20974;-86
2023/04/08 07:12:36;;;;;;;25.77;13.87;;;9.80;61.10;;;;;;5073400;28;20795;-86
2023/04/08 07:15:04;;;;;;;21.67;11.03;;;9.80;61.40;;;;;;5074443;28;20488;-86
2023/04/08 07:17:31;;;;;;;24.40;13.70;;;9.90;61.30;;;;;;5073661;27;20960;-85
2023/04/08 07:19:58;;;;;;;21.80;14.63;;;9.90;60.80;;;;;;5070008;28;20456;-85
2023/04/08 07:22:25;;;;;;;35.20;19.50;;;9.90;60.90;;;;;;5081150;28;20448;-85
2023/04/08 07:24:52;;;;;;;27.70;17.53;;;9.90;61.30;;;;;;5071436;28;20455;-86
2023/04/08 07:27:21;;;;;;;29.83;18.77;;;9.90;61.30;;;;;;5090755;28;20446;-85
2023/04/08 07:29:52;;;;;;;25.17;14.27;;;10.00;60.10;;;;;;5074346;28;21206;-86
2023/04/08 07:32:19;;;;;;;24.47;14.07;;;9.80;60.80;;;;;;5105479;27;20440;-85
2023/04/08 07:34:47;;;;;;;28.67;15.90;;;9.90;60.70;;;;;;5091453;28;20471;-85
2023/04/08 07:37:14;;;;;;;24.90;15.90;;;10.10;59.50;;;;;;5089316;28;20501;-85
2023/04/08 07:39:41;;;;;;;28.80;16.60;;;10.10;59.70;;;;;;5103786;27;20463;-86
2023/04/08 07:42:08;;;;;;;29.17;15.90;;;10.10;59.70;;;;;;5089851;28;20442;-86
2023/04/08 07:44:37;;;;;;;43.50;32.63;;;10.30;59.50;;;;;;5089396;28;20530;-86
2023/04/08 07:47:04;;;;;;;22.43;13.60;;;10.60;59.00;;;;;;5080355;28;20483;-85
2023/04/08 07:49:31;;;;;;;28.93;15.00;;;10.70;58.50;;;;;;5071395;27;20517;-84
2023/04/08 07:51:58;;;;;;;26.87;15.90;;;10.80;58.50;;;;;;5085567;28;20575;-87
2023/04/08 07:54:25;;;;;;;24.17;15.10;;;10.80;58.70;;;;;;5090571;28;20669;-86
2023/04/08 07:56:52;;;;;;;23.10;15.07;;;10.90;58.40;;;;;;5090638;28;20475;-85
2023/04/08 07:59:19;;;;;;;25.07;14.30;;;11.00;58.30;;;;;;5089121;28;20551;-86
2023/04/08 08:01:47;;;;;;;20.23;12.30;;;10.90;58.10;;;;;;5088549;28;20454;-86
2023/04/08 08:04:15;;;;;;;22.20;12.70;;;11.10;58.20;;;;;;5086501;28;20444;-85
2023/04/08 08:06:42;;;;;;;22.30;14.00;;;11.10;58.00;;;;;;5103686;27;20446;-86
2023/04/08 08:09:09;;;;;;;21.70;13.07;;;11.00;58.40;;;;;;5088609;28;20517;-86
2023/04/08 08:11:36;;;;;;;22.97;13.10;;;10.90;58.80;;;;;;5090773;28;20461;-85
2023/04/08 08:14:03;;;;;;;26.53;17.27;;;11.20;58.70;;;;;;5078839;28;20436;-85
2023/04/08 08:16:30;;;;;;;18.00;11.53;;;11.40;58.00;;;;;;5105221;27;20447;-86
2023/04/08 08:18:59;;;;;;;18.87;12.70;;;11.20;57.70;;;;;;5075355;28;20548;-86
2023/04/08 08:21:26;;;;;;;19.27;12.90;;;11.00;58.40;;;;;;5069917;28;20479;-86
2023/04/08 08:23:55;;;;;;;22.27;12.90;;;11.00;58.40;;;;;;5106010;27;20512;-86
2023/04/08 08:26:22;;;;;;;22.53;13.57;;;11.20;58.20;;;;;;5104881;27;20466;-86
2023/04/08 08:28:49;;;;;;;20.67;13.20;;;11.00;58.00;;;;;;5089131;27;20439;-85
2023/04/08 08:31:16;;;;;;;19.37;13.00;;;11.00;58.40;;;;;;5073278;28;20894;-86
2023/04/08 08:33:43;;;;;;;21.20;12.37;;;11.00;58.40;;;;;;5107829;27;20508;-85
2023/04/08 08:36:12;;;;;;;23.73;12.10;;;10.90;58.50;;;;;;5091235;28;20524;-85
2023/04/08 08:38:39;;;;;;;20.47;13.03;;;11.10;58.40;;;;;;5082165;28;20467;-87
2023/04/08 08:41:06;;;;;;;17.70;12.43;;;11.20;58.00;;;;;;5088442;28;20471;-86
2023/04/08 08:43:33;;;;;;;18.70;11.77;;;11.30;57.60;;;;;;5075539;28;20486;-86
2023/04/08 08:46:00;;;;;;;18.43;12.50;;;11.30;57.50;;;;;;5089924;28;20910;-87
2023/04/08 08:48:28;;;;;;;17.60;11.70;;;11.10;57.90;;;;;;5056545;28;20534;-86
2023/04/08 08:50:55;;;;;;;17.37;11.87;;;11.10;58.40;;;;;;5081972;28;20531;-86
2023/04/08 08:53:30;;;;;;;20.60;12.57;;;11.20;58.80;;;;;;5038490;28;20463;-86
2023/04/08 08:55:57;;;;;;;16.03;11.90;;;11.20;57.50;;;;;;5106444;27;21048;-86
2023/04/08 08:58:27;;;;;;;18.70;11.87;;;11.30;57.20;;;;;;5079885;28;20495;-88
2023/04/08 09:00:54;;;;;;;17.70;11.53;;;11.60;57.30;;;;;;5074459;28;20475;-84
2023/04/08 09:03:22;;;;;;;17.87;12.13;;;11.60;56.80;;;;;;5070018;28;21180;-86
2023/04/08 09:05:54;;;;;;;16.07;11.20;;;11.60;56.30;;;;;;5097734;28;20459;-85
2023/04/08 09:08:31;;;;;;;20.20;11.73;;;11.80;56.50;;;;;;5039400;28;20454;-86
2023/04/08 09:11:12;;;;;;;21.20;12.50;;;12.00;56.60;;;;;;5093696;28;20466;-85
2023/04/08 09:13:40;;;;;;;23.57;14.10;;;12.00;56.30;;;;;;5105160;27;20462;-85
2023/04/08 09:16:09;;;;;;;22.20;14.73;;;12.00;56.40;;;;;;5092711;27;20440;-84
2023/04/08 09:18:36;;;;;;;19.50;13.37;;;11.90;56.60;;;;;;5077896;28;20493;-85
2023/04/08 09:21:05;;;;;;;21.20;12.60;;;11.80;56.60;;;;;;5073311;28;21124;-86
2023/04/08 09:23:41;;;;;;;17.03;11.90;;;11.90;56.20;;;;;;5060693;28;20882;-85
2023/04/08 09:26:09;;;;;;;17.67;12.67;;;12.00;55.90;;;;;;5063037;28;21040;-85
2023/04/08 09:28:37;;;;;;;13.50;9.73;;;12.10;55.70;;;;;;5090164;27;20443;-86
2023/04/08 09:31:20;;;;;;;20.37;11.80;;;12.20;54.40;;;;;;5092237;28;20545;-85
2023/04/08 09:33:47;;;;;;;12.20;9.50;;;12.40;54.40;;;;;;5090670;28;20462;-86
2023/04/08 09:36:15;;;;;;;13.60;8.23;;;12.50;54.10;;;;;;5081233;28;20447;-86
2023/04/08 09:38:44;;;;;;;11.70;9.17;;;12.50;52.10;;;;;;5092069;27;20463;-86
2023/04/08 09:41:14;;;;;;;13.37;8.10;;;12.50;52.00;;;;;;5074561;28;20470;-85
2023/04/08 09:43:47;;;;;;;12.10;8.30;;;12.90;52.60;;;;;;5091243;27;20443;-85
2023/04/08 09:46:17;;;;;;;12.80;7.37;;;13.00;50.60;;;;;;5082702;28;20450;-86
2023/04/08 09:48:51;;;;;;;14.10;9.23;;;13.10;50.00;;;;;;5106156;27;20468;-86
2023/04/08 09:51:20;;;;;;;14.77;8.80;;;12.90;50.50;;;;;;5071388;28;20471;-86
2023/04/08 09:53:55;;;;;;;12.60;9.23;;;12.90;50.40;;;;;;5048440;28;20451;-86
2023/04/08 09:56:24;;;;;;;14.33;8.03;;;12.90;50.40;;;;;;5073495;28;20458;-86
2023/04/08 09:58:55;;;;;;;9.73;7.10;;;12.90;48.60;;;;;;5060509;28;20558;-86
2023/04/08 10:01:32;;;;;;;11.57;9.43;;;13.10;48.50;;;;;;5091305;28;20502;-87
2023/04/08 10:04:01;;;;;;;10.47;7.70;;;13.30;49.80;;;;;;5072301;28;21209;-85
2023/04/08 10:06:30;;;;;;;11.13;7.33;;;13.50;49.60;;;;;;5071970;28;20467;-85
2023/04/08 10:09:00;;;;;;;10.63;7.90;;;13.50;48.50;;;;;;5090132;28;20450;-84
2023/04/08 10:11:29;;;;;;;10.60;7.60;;;13.40;48.30;;;;;;5090640;27;20469;-85
2023/04/08 10:13:56;;;;;;;9.10;7.00;;;13.50;48.90;;;;;;5091521;28;20466;-84
2023/04/08 10:16:26;;;;;;;8.53;6.53;;;13.50;48.30;;;;;;5076272;28;20478;-84
2023/04/08 10:18:55;;;;;;;7.90;6.47;;;13.50;48.80;;;;;;5083839;28;20557;-84
2023/04/08 10:21:33;;;;;;;7.37;5.47;;;13.50;48.50;;;;;;5073534;28;20544;-84
2023/04/08 10:24:05;;;;;;;6.67;5.80;;;13.40;48.60;;;;;;5082661;28;21483;-84
2023/04/08 10:26:37;;;;;;;7.27;6.33;;;13.30;48.30;;;;;;5092021;28;20833;-85
2023/04/08 10:29:41;;;;;;;8.77;6.87;;;13.30;48.90;;;;;;5090302;28;20443;-85
2023/04/08 10:32:08;;;;;;;8.90;6.17;;;13.70;48.70;;;;;;5081749;28;20513;-84
2023/04/08 10:34:50;;;;;;;7.70;6.90;;;13.90;48.10;;;;;;5074983;27;20452;-84
2023/04/08 10:37:17;;;;;;;6.10;5.50;;;14.30;49.00;;;;;;5089596;27;20501;-85
2023/04/08 10:39:51;;;;;;;9.30;7.30;;;14.90;47.40;;;;;;5090373;28;21277;-85
2023/04/08 10:42:19;;;;;;;8.00;5.97;;;15.10;46.40;;;;;;5090078;28;20833;-85
2023/04/08 10:44:46;;;;;;;7.23;6.40;;;14.80;46.30;;;;;;5075852;28;20459;-85
2023/04/08 10:47:13;;;;;;;8.53;5.90;;;14.80;46.30;;;;;;5087544;28;20986;-85
2023/04/08 10:49:42;;;;;;;7.27;5.50;;;14.40;46.80;;;;;;5075455;28;20460;-85
2023/04/08 10:52:09;;;;;;;6.80;5.80;;;14.50;47.20;;;;;;5063730;28;20459;-86
2023/04/08 10:54:38;;;;;;;10.57;6.90;;;14.50;47.30;;;;;;5091106;28;20454;-85
2023/04/08 10:57:07;;;;;;;6.43;5.03;;;14.50;46.60;;;;;;5073772;28;20473;-87
2023/04/08 10:59:34;;;;;;;7.97;6.10;;;14.20;47.10;;;;;;5069037;28;20897;-86
2023/04/08 11:02:01;;;;;;;7.07;6.00;;;14.70;47.80;;;;;;5061927;28;20448;-86
2023/04/08 11:04:28;;;;;;;8.03;6.40;;;15.30;46.70;;;;;;5076541;28;21155;-85
2023/04/08 11:06:55;;;;;;;7.00;6.20;;;15.50;46.00;;;;;;5070067;28;20563;-86
2023/04/08 11:09:22;;;;;;;6.40;5.70;;;15.50;44.20;;;;;;5061572;28;20482;-86
2023/04/08 11:11:49;;;;;;;9.50;6.60;;;15.30;45.40;;;;;;5089417;28;20530;-86
2023/04/08 11:14:20;;;;;;;16.73;7.43;;;15.30;46.00;;;;;;5063756;28;20493;-87
2023/04/08 11:16:48;;;;;;;11.17;7.33;;;15.20;46.40;;;;;;5039482;28;20444;-84
2023/04/08 11:19:15;;;;;;;8.67;6.27;;;15.20;46.10;;;;;;5069965;28;21279;-84
2023/04/08 11:21:42;;;;;;;8.33;7.47;;;15.10;46.20;;;;;;5089643;28;20442;-85
2023/04/08 11:24:13;;;;;;;8.60;6.90;;;15.00;45.80;;;;;;5089021;28;20531;-84
2023/04/08 11:26:41;;;;;;;8.97;6.80;;;15.10;46.30;;;;;;5090081;27;20451;-84
2023/04/08 11:29:13;;;;;;;7.10;6.40;;;15.30;45.90;;;;;;5090296;28;20934;-85
2023/04/08 11:31:42;;;;;;;7.70;6.90;;;15.40;46.90;;;;;;5089692;28;20492;-84
2023/04/08 11:34:09;;;;;;;9.90;6.40;;;15.70;46.40;;;;;;5104484;27;20439;-84
2023/04/08 11:36:36;;;;;;;11.20;6.30;;;15.60;45.40;;;;;;5071360;28;20542;-83
2023/04/08 11:39:08;;;;;;;7.80;6.40;;;15.20;45.50;;;;;;5097472;28;20475;-84
2023/04/08 11:41:39;;;;;;;8.53;6.37;;;14.90;46.70;;;;;;5072787;28;20455;-84
2023/04/08 11:44:06;;;;;;;7.27;5.77;;;15.00;46.60;;;;;;5088299;28;20458;-84
2023/04/08 11:46:34;;;;;;;7.37;6.00;;;14.90;46.40;;;;;;5093552;28;20522;-84
2023/04/08 11:49:05;;;;;;;9.07;5.57;;;15.00;46.90;;;;;;5092435;28;20448;-83
2023/04/08 11:51:33;;;;;;;6.43;5.00;;;14.80;46.40;;;;;;5092237;28;20436;-85
2023/04/08 11:54:01;;;;;;;7.20;6.40;;;14.70;47.60;;;;;;5090689;28;20954;-84
2023/04/08 11:56:29;;;;;;;6.37;5.20;;;14.90;47.90;;;;;;5089888;28;20493;-85
2023/04/08 11:58:56;;;;;;;8.23;4.90;;;14.90;47.60;;;;;;5091015;28;20478;-84
2023/04/08 12:01:23;;;;;;;5.73;5.00;;;14.80;48.30;;;;;;5088701;27;20547;-84
2023/04/08 12:03:58;;;;;;;7.07;6.00;;;14.80;47.40;;;;;;5072213;28;20529;-84
2023/04/08 12:06:27;;;;;;;6.63;5.70;;;14.90;47.90;;;;;;5090582;28;20545;-83
2023/04/08 12:08:55;;;;;;;6.50;5.87;;;15.00;47.20;;;;;;5091347;28;20921;-85
2023/04/08 12:11:22;;;;;;;8.33;6.07;;;15.00;47.40;;;;;;5080556;28;20981;-84
2023/04/08 12:13:51;;;;;;;7.50;6.03;;;15.10;47.60;;;;;;5089039;28;20550;-84
2023/04/08 12:16:19;;;;;;;8.70;5.50;;;15.00;47.90;;;;;;5090004;28;20465;-85
2023/04/08 12:18:46;;;;;;;8.90;6.57;;;15.10;48.30;;;;;;5092287;27;20439;-83
2023/04/08 12:21:13;;;;;;;8.47;7.10;;;14.90;47.40;;;;;;5077985;28;20546;-84
2023/04/08 12:23:42;;;;;;;8.00;6.07;;;15.00;48.50;;;;;;5103800;27;20558;-83
2023/04/08 12:26:09;;;;;;;7.70;6.23;;;15.10;47.50;;;;;;5087056;28;20487;-84
2023/04/08 12:28:36;;;;;;;8.90;6.40;;;14.90;47.40;;;;;;5088706;28;20505;-85
2023/04/08 12:31:04;;;;;;;9.20;5.97;;;14.80;48.20;;;;;;5091006;28;20519;-84
2023/04/08 12:33:31;;;;;;;5.43;4.93;;;14.80;48.20;;;;;;5091501;28;20554;-84
2023/04/08 12:35:58;;;;;;;5.87;5.37;;;14.80;48.40;;;;;;5087762;28;20482;-84
2023/04/08 12:38:25;;;;;;;8.50;7.13;;;14.90;48.10;;;;;;5088778;28;20443;-84
2023/04/08 12:40:53;;;;;;;6.63;4.97;;;14.80;47.70;;;;;;5103499;27;20483;-83